Osceola, Arkansas
Current Conditions -  °F | °C
As of 7:53 AM on Friday 31 Oct 2014 (Local Time) from KHKA Reporting Station
Clear Clear  
Wind Chill:   Ceiling: Unl
Heat Index:   Visibility: 10mi
Dew Point:   Wind: 14mph
Humidity: 93%   Direction: 350°N
Pressure: 30.08"   Gusts: NA
Location:  35.71°N, 89.97°W
Report Text: KHKA 311253Z AUTO 35012KT 10SM CLR 09/08 A3008 RMK AO2 SLP186 T00940083
Loading
Personal Weather Stations






























Interactive Weather Map
Tropical Storm Tracking
New forecast layout! Learn more

10-Day Weather Forecast

Advertisements
Track Severe Weather on mobile